sensor_id;sensor_type;location;lat;lon;timestamp;temperature;humidity
152;DHT22;68;48.792;9.164;2023-07-31T00:00:15;16.10;91.40
152;DHT22;68;48.792;9.164;2023-07-31T00:02:41;16.10;92.20
152;DHT22;68;48.792;9.164;2023-07-31T00:05:08;16.40;92.10
152;DHT22;68;48.792;9.164;2023-07-31T00:07:35;16.40;91.80
152;DHT22;68;48.792;9.164;2023-07-31T00:10:02;16.20;91.80
152;DHT22;68;48.792;9.164;2023-07-31T00:12:30;16.10;93.50
152;DHT22;68;48.792;9.164;2023-07-31T00:14:58;15.90;92.90
152;DHT22;68;48.792;9.164;2023-07-31T00:17:25;15.80;93.20
152;DHT22;68;48.792;9.164;2023-07-31T00:19:51;15.80;93.20
152;DHT22;68;48.792;9.164;2023-07-31T00:22:18;15.80;93.40
152;DHT22;68;48.792;9.164;2023-07-31T00:24:45;15.80;93.50
152;DHT22;68;48.792;9.164;2023-07-31T00:27:11;15.80;93.10
152;DHT22;68;48.792;9.164;2023-07-31T00:29:40;15.80;93.50
152;DHT22;68;48.792;9.164;2023-07-31T00:32:07;15.70;93.50
152;DHT22;68;48.792;9.164;2023-07-31T00:34:34;15.70;93.40
152;DHT22;68;48.792;9.164;2023-07-31T00:37:00;15.80;94.00
152;DHT22;68;48.792;9.164;2023-07-31T00:39:27;15.90;94.00
152;DHT22;68;48.792;9.164;2023-07-31T00:41:54;16.10;93.30
152;DHT22;68;48.792;9.164;2023-07-31T00:44:21;16.10;92.90
152;DHT22;68;48.792;9.164;2023-07-31T00:46:49;16.10;92.80
152;DHT22;68;48.792;9.164;2023-07-31T00:49:16;16.20;92.90
152;DHT22;68;48.792;9.164;2023-07-31T00:51:42;16.00;92.30
152;DHT22;68;48.792;9.164;2023-07-31T00:54:09;16.00;92.30
152;DHT22;68;48.792;9.164;2023-07-31T00:56:38;15.90;93.40
152;DHT22;68;48.792;9.164;2023-07-31T00:59:05;15.80;93.80
152;DHT22;68;48.792;9.164;2023-07-31T01:01:31;15.80;93.90
152;DHT22;68;48.792;9.164;2023-07-31T01:03:59;15.80;93.50
152;DHT22;68;48.792;9.164;2023-07-31T01:06:33;16.00;93.80
152;DHT22;68;48.792;9.164;2023-07-31T01:09:04;16.10;93.70
152;DHT22;68;48.792;9.164;2023-07-31T01:11:36;16.10;93.00
152;DHT22;68;48.792;9.164;2023-07-31T01:14:05;16.10;93.10
152;DHT22;68;48.792;9.164;2023-07-31T01:16:32;15.90;93.00
152;DHT22;68;48.792;9.164;2023-07-31T01:19:00;15.80;93.90
152;DHT22;68;48.792;9.164;2023-07-31T01:21:41;15.80;94.10
152;DHT22;68;48.792;9.164;2023-07-31T01:24:21;15.80;93.90
152;DHT22;68;48.792;9.164;2023-07-31T01:26:55;15.50;94.20
152;DHT22;68;48.792;9.164;2023-07-31T01:29:28;15.30;94.20
152;DHT22;68;48.792;9.164;2023-07-31T01:31:57;15.20;94.20
152;DHT22;68;48.792;9.164;2023-07-31T01:34:28;15.40;94.40
152;DHT22;68;48.792;9.164;2023-07-31T01:36:56;15.70;94.20
152;DHT22;68;48.792;9.164;2023-07-31T01:39:22;15.70;94.30
152;DHT22;68;48.792;9.164;2023-07-31T01:41:50;15.80;94.10
152;DHT22;68;48.792;9.164;2023-07-31T01:44:17;15.80;94.10
152;DHT22;68;48.792;9.164;2023-07-31T01:46:44;15.90;94.30
152;DHT22;68;48.792;9.164;2023-07-31T01:49:11;16.00;93.90
152;DHT22;68;48.792;9.164;2023-07-31T01:51:37;16.00;93.80
152;DHT22;68;48.792;9.164;2023-07-31T01:54:04;16.20;92.80
152;DHT22;68;48.792;9.164;2023-07-31T01:56:31;16.20;92.60
152;DHT22;68;48.792;9.164;2023-07-31T01:58:59;16.20;92.80
152;DHT22;68;48.792;9.164;2023-07-31T02:01:26;16.00;93.50
152;DHT22;68;48.792;9.164;2023-07-31T02:03:53;15.70;93.80
152;DHT22;68;48.792;9.164;2023-07-31T02:06:19;15.60;94.10
152;DHT22;68;48.792;9.164;2023-07-31T02:08:48;15.60;94.10
152;DHT22;68;48.792;9.164;2023-07-31T02:11:14;15.80;94.20
152;DHT22;68;48.792;9.164;2023-07-31T02:13:41;15.90;94.30
152;DHT22;68;48.792;9.164;2023-07-31T02:16:09;16.00;93.70
152;DHT22;68;48.792;9.164;2023-07-31T02:18:36;16.20;93.50
152;DHT22;68;48.792;9.164;2023-07-31T02:21:03;16.20;93.00
152;DHT22;68;48.792;9.164;2023-07-31T02:23:30;16.10;93.10
152;DHT22;68;48.792;9.164;2023-07-31T02:25:56;16.30;92.60
152;DHT22;68;48.792;9.164;2023-07-31T02:28:23;16.10;92.60
152;DHT22;68;48.792;9.164;2023-07-31T02:30:50;16.10;93.20
152;DHT22;68;48.792;9.164;2023-07-31T02:33:19;16.20;93.50
152;DHT22;68;48.792;9.164;2023-07-31T02:35:45;16.30;93.00
152;DHT22;68;48.792;9.164;2023-07-31T02:38:12;16.30;92.50
152;DHT22;68;48.792;9.164;2023-07-31T02:40:39;15.90;93.10
152;DHT22;68;48.792;9.164;2023-07-31T02:43:06;15.70;93.40
152;DHT22;68;48.792;9.164;2023-07-31T02:45:33;15.60;93.90
152;DHT22;68;48.792;9.164;2023-07-31T02:48:00;15.60;94.00
152;DHT22;68;48.792;9.164;2023-07-31T02:50:28;15.80;93.60
152;DHT22;68;48.792;9.164;2023-07-31T02:52:55;15.70;93.70
152;DHT22;68;48.792;9.164;2023-07-31T02:55:21;15.70;93.90
152;DHT22;68;48.792;9.164;2023-07-31T02:57:48;15.70;94.00
152;DHT22;68;48.792;9.164;2023-07-31T03:00:15;15.60;94.20
152;DHT22;68;48.792;9.164;2023-07-31T03:02:42;15.50;94.30
152;DHT22;68;48.792;9.164;2023-07-31T03:05:08;15.50;94.20
152;DHT22;68;48.792;9.164;2023-07-31T03:07:36;15.20;94.20
152;DHT22;68;48.792;9.164;2023-07-31T03:10:04;15.10;94.40
152;DHT22;68;48.792;9.164;2023-07-31T03:12:30;14.90;94.20
152;DHT22;68;48.792;9.164;2023-07-31T03:14:57;15.00;94.00
152;DHT22;68;48.792;9.164;2023-07-31T03:17:24;15.00;94.00
152;DHT22;68;48.792;9.164;2023-07-31T03:19:51;15.10;93.30
152;DHT22;68;48.792;9.164;2023-07-31T03:22:17;15.10;93.20
152;DHT22;68;48.792;9.164;2023-07-31T03:24:46;15.20;93.70
152;DHT22;68;48.792;9.164;2023-07-31T03:27:12;15.10;94.30
152;DHT22;68;48.792;9.164;2023-07-31T03:29:39;15.10;94.20
152;DHT22;68;48.792;9.164;2023-07-31T03:32:06;15.20;94.30
152;DHT22;68;48.792;9.164;2023-07-31T03:34:33;15.30;94.40
152;DHT22;68;48.792;9.164;2023-07-31T03:37:00;15.10;94.40
152;DHT22;68;48.792;9.164;2023-07-31T03:39:27;15.10;93.90
152;DHT22;68;48.792;9.164;2023-07-31T03:41:55;15.00;94.20
152;DHT22;68;48.792;9.164;2023-07-31T03:44:21;14.90;94.60
152;DHT22;68;48.792;9.164;2023-07-31T03:46:48;14.90;94.50
152;DHT22;68;48.792;9.164;2023-07-31T03:49:15;15.00;94.20
152;DHT22;68;48.792;9.164;2023-07-31T03:51:42;15.20;94.50
152;DHT22;68;48.792;9.164;2023-07-31T03:54:08;15.30;94.30
152;DHT22;68;48.792;9.164;2023-07-31T03:56:35;15.30;94.30
152;DHT22;68;48.792;9.164;2023-07-31T03:59:05;15.30;94.30
152;DHT22;68;48.792;9.164;2023-07-31T04:01:32;15.30;94.30
152;DHT22;68;48.792;9.164;2023-07-31T04:03:58;15.40;94.30
152;DHT22;68;48.792;9.164;2023-07-31T04:06:25;15.50;94.40
152;DHT22;68;48.792;9.164;2023-07-31T04:08:52;15.60;93.80
152;DHT22;68;48.792;9.164;2023-07-31T04:11:19;15.70;93.90
152;DHT22;68;48.792;9.164;2023-07-31T04:13:46;15.80;93.90
152;DHT22;68;48.792;9.164;2023-07-31T04:16:14;15.80;93.70
152;DHT22;68;48.792;9.164;2023-07-31T04:18:41;15.90;93.40
152;DHT22;68;48.792;9.164;2023-07-31T04:21:07;15.80;92.20
152;DHT22;68;48.792;9.164;2023-07-31T04:23:35;15.80;93.50
152;DHT22;68;48.792;9.164;2023-07-31T04:26:02;15.80;93.00
152;DHT22;68;48.792;9.164;2023-07-31T04:28:29;15.80;93.20
152;DHT22;68;48.792;9.164;2023-07-31T04:30:57;16.00;92.50
152;DHT22;68;48.792;9.164;2023-07-31T04:33:25;16.20;91.30
152;DHT22;68;48.792;9.164;2023-07-31T04:35:53;16.30;92.50
152;DHT22;68;48.792;9.164;2023-07-31T04:38:19;16.30;92.10
152;DHT22;68;48.792;9.164;2023-07-31T04:40:46;16.30;91.20
152;DHT22;68;48.792;9.164;2023-07-31T04:43:13;16.50;90.40
152;DHT22;68;48.792;9.164;2023-07-31T04:45:42;16.50;91.00
152;DHT22;68;48.792;9.164;2023-07-31T04:48:11;16.50;91.00
152;DHT22;68;48.792;9.164;2023-07-31T04:50:39;16.50;90.60
152;DHT22;68;48.792;9.164;2023-07-31T04:53:06;16.50;90.80
152;DHT22;68;48.792;9.164;2023-07-31T04:55:33;16.40;92.20
152;DHT22;68;48.792;9.164;2023-07-31T04:57:59;16.40;92.40
152;DHT22;68;48.792;9.164;2023-07-31T05:00:26;16.50;91.20
152;DHT22;68;48.792;9.164;2023-07-31T05:02:53;16.60;91.70
152;DHT22;68;48.792;9.164;2023-07-31T05:05:20;16.70;90.60
152;DHT22;68;48.792;9.164;2023-07-31T05:07:48;16.70;90.70
152;DHT22;68;48.792;9.164;2023-07-31T05:10:14;16.80;90.40
152;DHT22;68;48.792;9.164;2023-07-31T05:12:41;16.80;90.80
152;DHT22;68;48.792;9.164;2023-07-31T05:15:09;16.70;90.60
152;DHT22;68;48.792;9.164;2023-07-31T05:17:36;16.90;90.60
152;DHT22;68;48.792;9.164;2023-07-31T05:20:03;17.10;89.60
152;DHT22;68;48.792;9.164;2023-07-31T05:22:29;17.20;89.40
152;DHT22;68;48.792;9.164;2023-07-31T05:24:57;17.20;89.80
152;DHT22;68;48.792;9.164;2023-07-31T05:27:25;17.30;90.10
152;DHT22;68;48.792;9.164;2023-07-31T05:29:52;17.30;90.40
152;DHT22;68;48.792;9.164;2023-07-31T05:32:18;17.00;91.10
152;DHT22;68;48.792;9.164;2023-07-31T05:34:45;17.00;90.50
152;DHT22;68;48.792;9.164;2023-07-31T05:37:12;17.10;90.70
152;DHT22;68;48.792;9.164;2023-07-31T05:39:38;17.10;91.10
152;DHT22;68;48.792;9.164;2023-07-31T05:42:07;17.10;90.70
152;DHT22;68;48.792;9.164;2023-07-31T05:44:33;17.30;90.10
152;DHT22;68;48.792;9.164;2023-07-31T05:47:00;17.30;89.00
152;DHT22;68;48.792;9.164;2023-07-31T05:49:29;17.40;87.80
152;DHT22;68;48.792;9.164;2023-07-31T05:51:55;17.40;88.60
152;DHT22;68;48.792;9.164;2023-07-31T05:54:22;17.50;88.50
152;DHT22;68;48.792;9.164;2023-07-31T05:56:49;17.60;88.20
152;DHT22;68;48.792;9.164;2023-07-31T05:59:17;17.50;87.70
152;DHT22;68;48.792;9.164;2023-07-31T06:01:44;17.60;87.80
152;DHT22;68;48.792;9.164;2023-07-31T06:04:10;17.50;88.00
152;DHT22;68;48.792;9.164;2023-07-31T06:06:37;17.50;87.80
152;DHT22;68;48.792;9.164;2023-07-31T06:09:04;17.50;88.30
152;DHT22;68;48.792;9.164;2023-07-31T06:11:31;17.50;88.40
152;DHT22;68;48.792;9.164;2023-07-31T06:13:57;17.40;88.40
152;DHT22;68;48.792;9.164;2023-07-31T06:16:26;17.50;87.80
152;DHT22;68;48.792;9.164;2023-07-31T06:18:52;17.70;87.50
152;DHT22;68;48.792;9.164;2023-07-31T06:21:19;17.70;87.50
152;DHT22;68;48.792;9.164;2023-07-31T06:23:46;17.90;86.60
152;DHT22;68;48.792;9.164;2023-07-31T06:26:13;18.10;86.10
152;DHT22;68;48.792;9.164;2023-07-31T06:28:39;18.20;86.10
152;DHT22;68;48.792;9.164;2023-07-31T06:31:06;18.20;85.40
152;DHT22;68;48.792;9.164;2023-07-31T06:33:34;18.30;84.00
152;DHT22;68;48.792;9.164;2023-07-31T06:36:01;18.40;82.40
152;DHT22;68;48.792;9.164;2023-07-31T06:38:28;18.40;84.90
152;DHT22;68;48.792;9.164;2023-07-31T06:40:55;18.50;83.90
152;DHT22;68;48.792;9.164;2023-07-31T06:43:21;18.50;82.90
152;DHT22;68;48.792;9.164;2023-07-31T06:45:49;18.60;83.90
152;DHT22;68;48.792;9.164;2023-07-31T06:48:16;18.60;84.10
152;DHT22;68;48.792;9.164;2023-07-31T06:50:44;18.50;83.10
152;DHT22;68;48.792;9.164;2023-07-31T06:53:11;18.60;84.70
152;DHT22;68;48.792;9.164;2023-07-31T06:55:38;18.80;83.40
152;DHT22;68;48.792;9.164;2023-07-31T06:58:05;19.00;82.70
152;DHT22;68;48.792;9.164;2023-07-31T07:00:32;19.00;82.80
152;DHT22;68;48.792;9.164;2023-07-31T07:02:59;19.10;82.00
152;DHT22;68;48.792;9.164;2023-07-31T07:05:25;19.20;81.70
152;DHT22;68;48.792;9.164;2023-07-31T07:07:53;19.10;81.70
152;DHT22;68;48.792;9.164;2023-07-31T07:10:20;19.20;82.00
152;DHT22;68;48.792;9.164;2023-07-31T07:12:48;19.10;81.30
152;DHT22;68;48.792;9.164;2023-07-31T07:15:15;19.20;81.10
152;DHT22;68;48.792;9.164;2023-07-31T07:17:42;19.30;81.70
152;DHT22;68;48.792;9.164;2023-07-31T07:20:09;19.70;80.00
152;DHT22;68;48.792;9.164;2023-07-31T07:22:35;19.70;79.10
152;DHT22;68;48.792;9.164;2023-07-31T07:25:05;19.90;79.10
152;DHT22;68;48.792;9.164;2023-07-31T07:27:32;19.90;77.60
152;DHT22;68;48.792;9.164;2023-07-31T07:29:59;20.10;77.50
152;DHT22;68;48.792;9.164;2023-07-31T07:32:26;20.10;77.90
152;DHT22;68;48.792;9.164;2023-07-31T07:34:53;20.10;77.90
152;DHT22;68;48.792;9.164;2023-07-31T07:37:20;19.90;78.80
152;DHT22;68;48.792;9.164;2023-07-31T07:39:46;19.90;78.10
152;DHT22;68;48.792;9.164;2023-07-31T07:42:14;19.80;77.20
152;DHT22;68;48.792;9.164;2023-07-31T07:44:41;19.70;77.50
152;DHT22;68;48.792;9.164;2023-07-31T07:47:08;19.70;78.20
152;DHT22;68;48.792;9.164;2023-07-31T07:49:35;19.80;78.80
152;DHT22;68;48.792;9.164;2023-07-31T07:52:02;19.80;78.90
152;DHT22;68;48.792;9.164;2023-07-31T07:54:30;19.90;79.10
152;DHT22;68;48.792;9.164;2023-07-31T07:56:57;19.90;77.30
152;DHT22;68;48.792;9.164;2023-07-31T07:59:25;20.10;76.80
152;DHT22;68;48.792;9.164;2023-07-31T08:01:51;20.10;77.60
152;DHT22;68;48.792;9.164;2023-07-31T08:04:18;20.30;76.30
152;DHT22;68;48.792;9.164;2023-07-31T08:06:45;20.40;75.50
152;DHT22;68;48.792;9.164;2023-07-31T08:09:12;20.50;75.50
152;DHT22;68;48.792;9.164;2023-07-31T08:11:39;20.60;77.00
152;DHT22;68;48.792;9.164;2023-07-31T08:14:05;20.80;74.70
152;DHT22;68;48.792;9.164;2023-07-31T08:16:33;20.90;75.90
152;DHT22;68;48.792;9.164;2023-07-31T08:19:00;20.90;76.30
152;DHT22;68;48.792;9.164;2023-07-31T08:21:27;20.90;75.10
152;DHT22;68;48.792;9.164;2023-07-31T08:23:54;20.90;73.20
152;DHT22;68;48.792;9.164;2023-07-31T08:26:21;20.90;74.60
152;DHT22;68;48.792;9.164;2023-07-31T08:28:48;21.00;73.60
152;DHT22;68;48.792;9.164;2023-07-31T08:31:14;21.10;73.30
152;DHT22;68;48.792;9.164;2023-07-31T08:33:42;21.50;73.80
152;DHT22;68;48.792;9.164;2023-07-31T08:36:09;21.50;73.80
152;DHT22;68;48.792;9.164;2023-07-31T08:38:36;21.50;72.00
152;DHT22;68;48.792;9.164;2023-07-31T08:41:03;21.40;72.00
152;DHT22;68;48.792;9.164;2023-07-31T08:43:31;21.20;72.80
152;DHT22;68;48.792;9.164;2023-07-31T08:45:59;21.30;72.80
152;DHT22;68;48.792;9.164;2023-07-31T08:48:26;21.40;74.50
152;DHT22;68;48.792;9.164;2023-07-31T08:50:55;21.50;71.90
152;DHT22;68;48.792;9.164;2023-07-31T08:53:22;21.60;72.40
152;DHT22;68;48.792;9.164;2023-07-31T08:55:49;21.60;72.90
152;DHT22;68;48.792;9.164;2023-07-31T08:58:19;21.70;72.30
152;DHT22;68;48.792;9.164;2023-07-31T09:00:47;21.80;73.40
152;DHT22;68;48.792;9.164;2023-07-31T09:03:15;21.70;74.40
152;DHT22;68;48.792;9.164;2023-07-31T09:05:43;21.70;72.50
152;DHT22;68;48.792;9.164;2023-07-31T09:08:12;21.70;72.60
152;DHT22;68;48.792;9.164;2023-07-31T09:10:41;21.90;72.90
152;DHT22;68;48.792;9.164;2023-07-31T09:13:08;22.00;71.40
152;DHT22;68;48.792;9.164;2023-07-31T09:15:36;22.00;72.60
152;DHT22;68;48.792;9.164;2023-07-31T09:18:04;22.10;72.00
152;DHT22;68;48.792;9.164;2023-07-31T09:20:31;22.20;70.40
152;DHT22;68;48.792;9.164;2023-07-31T09:23:06;22.20;70.70
152;DHT22;68;48.792;9.164;2023-07-31T09:25:35;22.10;71.30
152;DHT22;68;48.792;9.164;2023-07-31T09:28:04;22.00;71.70
152;DHT22;68;48.792;9.164;2023-07-31T09:30:32;21.90;71.60
152;DHT22;68;48.792;9.164;2023-07-31T09:33:10;21.60;70.60
152;DHT22;68;48.792;9.164;2023-07-31T09:35:36;21.80;71.70
152;DHT22;68;48.792;9.164;2023-07-31T09:38:07;21.80;72.10
152;DHT22;68;48.792;9.164;2023-07-31T09:40:37;21.60;71.30
152;DHT22;68;48.792;9.164;2023-07-31T09:43:06;21.40;72.20
152;DHT22;68;48.792;9.164;2023-07-31T09:45:34;21.40;73.50
152;DHT22;68;48.792;9.164;2023-07-31T09:48:03;21.50;73.70
152;DHT22;68;48.792;9.164;2023-07-31T09:50:30;21.50;71.90
152;DHT22;68;48.792;9.164;2023-07-31T09:52:57;21.60;73.80
152;DHT22;68;48.792;9.164;2023-07-31T09:55:24;21.80;72.60
152;DHT22;68;48.792;9.164;2023-07-31T09:57:55;22.10;72.20
152;DHT22;68;48.792;9.164;2023-07-31T10:00:23;22.50;72.70
152;DHT22;68;48.792;9.164;2023-07-31T10:02:51;22.70;72.10
152;DHT22;68;48.792;9.164;2023-07-31T10:05:19;22.60;70.20
152;DHT22;68;48.792;9.164;2023-07-31T10:07:51;22.50;70.60
152;DHT22;68;48.792;9.164;2023-07-31T10:10:20;22.40;70.10
152;DHT22;68;48.792;9.164;2023-07-31T10:12:48;22.50;70.00
152;DHT22;68;48.792;9.164;2023-07-31T10:15:17;22.50;71.70
152;DHT22;68;48.792;9.164;2023-07-31T10:17:44;22.50;69.90
152;DHT22;68;48.792;9.164;2023-07-31T10:20:11;22.50;70.00
152;DHT22;68;48.792;9.164;2023-07-31T10:22:38;22.40;72.10
152;DHT22;68;48.792;9.164;2023-07-31T10:25:08;22.40;70.60
152;DHT22;68;48.792;9.164;2023-07-31T10:27:35;22.30;71.10
152;DHT22;68;48.792;9.164;2023-07-31T10:30:04;22.20;71.80
152;DHT22;68;48.792;9.164;2023-07-31T10:32:33;22.30;71.20
152;DHT22;68;48.792;9.164;2023-07-31T10:35:01;22.20;70.20
152;DHT22;68;48.792;9.164;2023-07-31T10:37:37;22.40;71.80
152;DHT22;68;48.792;9.164;2023-07-31T10:40:05;22.70;70.30
152;DHT22;68;48.792;9.164;2023-07-31T10:42:34;22.90;69.10
152;DHT22;68;48.792;9.164;2023-07-31T10:45:03;23.00;70.50
152;DHT22;68;48.792;9.164;2023-07-31T10:47:32;23.10;68.70
152;DHT22;68;48.792;9.164;2023-07-31T10:50:18;23.30;67.70
152;DHT22;68;48.792;9.164;2023-07-31T10:52:48;23.20;69.20
152;DHT22;68;48.792;9.164;2023-07-31T10:55:26;23.20;67.30
152;DHT22;68;48.792;9.164;2023-07-31T10:57:54;23.20;67.10
152;DHT22;68;48.792;9.164;2023-07-31T11:00:24;23.20;68.00
152;DHT22;68;48.792;9.164;2023-07-31T11:03:04;23.20;68.00
152;DHT22;68;48.792;9.164;2023-07-31T11:05:51;23.30;67.80
152;DHT22;68;48.792;9.164;2023-07-31T11:08:20;23.30;68.00
152;DHT22;68;48.792;9.164;2023-07-31T11:10:49;23.20;69.60
152;DHT22;68;48.792;9.164;2023-07-31T11:13:16;23.30;67.50
152;DHT22;68;48.792;9.164;2023-07-31T11:15:43;23.20;69.40
152;DHT22;68;48.792;9.164;2023-07-31T11:18:11;23.00;69.20
152;DHT22;68;48.792;9.164;2023-07-31T11:20:39;23.00;69.20
152;DHT22;68;48.792;9.164;2023-07-31T11:23:08;23.00;69.40
152;DHT22;68;48.792;9.164;2023-07-31T11:25:36;22.90;66.40
152;DHT22;68;48.792;9.164;2023-07-31T11:28:04;23.00;68.80
152;DHT22;68;48.792;9.164;2023-07-31T11:30:32;23.10;68.60
152;DHT22;68;48.792;9.164;2023-07-31T11:33:00;23.20;68.10
152;DHT22;68;48.792;9.164;2023-07-31T11:35:30;23.40;68.20
152;DHT22;68;48.792;9.164;2023-07-31T11:37:57;23.40;69.40
152;DHT22;68;48.792;9.164;2023-07-31T11:40:24;23.30;68.50
152;DHT22;68;48.792;9.164;2023-07-31T11:42:55;23.00;70.30
152;DHT22;68;48.792;9.164;2023-07-31T11:45:25;23.10;69.90
152;DHT22;68;48.792;9.164;2023-07-31T11:47:52;23.10;68.00
152;DHT22;68;48.792;9.164;2023-07-31T11:50:20;23.20;68.80
152;DHT22;68;48.792;9.164;2023-07-31T11:52:49;23.30;69.40
152;DHT22;68;48.792;9.164;2023-07-31T11:55:19;23.40;68.30
152;DHT22;68;48.792;9.164;2023-07-31T11:57:46;23.30;67.80
152;DHT22;68;48.792;9.164;2023-07-31T12:00:14;23.40;70.00
152;DHT22;68;48.792;9.164;2023-07-31T12:02:41;23.20;69.50
152;DHT22;68;48.792;9.164;2023-07-31T12:05:11;23.30;70.30
152;DHT22;68;48.792;9.164;2023-07-31T12:07:46;23.40;68.90
152;DHT22;68;48.792;9.164;2023-07-31T12:10:24;23.40;70.50
152;DHT22;68;48.792;9.164;2023-07-31T12:13:00;23.30;68.80
152;DHT22;68;48.792;9.164;2023-07-31T12:15:38;23.30;70.10
152;DHT22;68;48.792;9.164;2023-07-31T12:18:06;23.40;69.60
152;DHT22;68;48.792;9.164;2023-07-31T12:20:33;23.30;69.90
152;DHT22;68;48.792;9.164;2023-07-31T12:23:00;23.30;70.50
152;DHT22;68;48.792;9.164;2023-07-31T12:25:32;23.20;72.50
152;DHT22;68;48.792;9.164;2023-07-31T12:28:04;23.30;70.10
152;DHT22;68;48.792;9.164;2023-07-31T12:30:33;23.10;73.60
152;DHT22;68;48.792;9.164;2023-07-31T12:33:03;23.00;70.20
152;DHT22;68;48.792;9.164;2023-07-31T12:35:35;22.80;71.60
152;DHT22;68;48.792;9.164;2023-07-31T12:38:02;22.90;70.80
152;DHT22;68;48.792;9.164;2023-07-31T12:40:29;22.80;69.70
152;DHT22;68;48.792;9.164;2023-07-31T12:42:58;22.90;70.80
152;DHT22;68;48.792;9.164;2023-07-31T12:45:27;22.70;69.70
152;DHT22;68;48.792;9.164;2023-07-31T12:47:54;22.80;69.40
152;DHT22;68;48.792;9.164;2023-07-31T12:50:20;22.60;69.20
152;DHT22;68;48.792;9.164;2023-07-31T12:52:48;22.60;70.10
152;DHT22;68;48.792;9.164;2023-07-31T12:55:14;22.60;69.90
152;DHT22;68;48.792;9.164;2023-07-31T12:57:41;22.60;71.80
152;DHT22;68;48.792;9.164;2023-07-31T13:00:11;22.60;71.10
152;DHT22;68;48.792;9.164;2023-07-31T13:02:39;22.70;70.20
152;DHT22;68;48.792;9.164;2023-07-31T13:05:06;22.60;71.60
152;DHT22;68;48.792;9.164;2023-07-31T13:07:33;22.60;74.90
152;DHT22;68;48.792;9.164;2023-07-31T13:10:00;22.80;70.20
152;DHT22;68;48.792;9.164;2023-07-31T13:12:26;22.90;70.90
152;DHT22;68;48.792;9.164;2023-07-31T13:14:53;22.90;69.70
152;DHT22;68;48.792;9.164;2023-07-31T13:17:21;22.90;69.70
152;DHT22;68;48.792;9.164;2023-07-31T13:19:48;22.90;71.00
152;DHT22;68;48.792;9.164;2023-07-31T13:22:15;22.80;70.30
152;DHT22;68;48.792;9.164;2023-07-31T13:24:42;22.80;70.50
152;DHT22;68;48.792;9.164;2023-07-31T13:27:08;22.80;71.90
152;DHT22;68;48.792;9.164;2023-07-31T13:29:35;22.80;71.40
152;DHT22;68;48.792;9.164;2023-07-31T13:32:02;22.70;73.20
152;DHT22;68;48.792;9.164;2023-07-31T13:34:30;22.90;73.90
152;DHT22;68;48.792;9.164;2023-07-31T13:36:57;23.00;70.20
152;DHT22;68;48.792;9.164;2023-07-31T13:39:24;23.10;72.40
152;DHT22;68;48.792;9.164;2023-07-31T13:41:51;23.20;69.10
152;DHT22;68;48.792;9.164;2023-07-31T13:44:17;23.30;70.00
152;DHT22;68;48.792;9.164;2023-07-31T13:46:44;23.30;68.20
152;DHT22;68;48.792;9.164;2023-07-31T13:49:11;23.40;68.00
152;DHT22;68;48.792;9.164;2023-07-31T13:51:39;23.20;71.20
152;DHT22;68;48.792;9.164;2023-07-31T13:54:06;23.30;70.10
152;DHT22;68;48.792;9.164;2023-07-31T13:56:33;23.30;68.80
152;DHT22;68;48.792;9.164;2023-07-31T13:59:00;23.40;69.10
152;DHT22;68;48.792;9.164;2023-07-31T14:01:27;23.40;69.30
152;DHT22;68;48.792;9.164;2023-07-31T14:03:54;23.30;69.60
152;DHT22;68;48.792;9.164;2023-07-31T14:06:20;23.20;71.60
152;DHT22;68;48.792;9.164;2023-07-31T14:08:49;23.30;70.20
152;DHT22;68;48.792;9.164;2023-07-31T14:11:15;23.20;71.40
152;DHT22;68;48.792;9.164;2023-07-31T14:13:42;23.10;69.70
152;DHT22;68;48.792;9.164;2023-07-31T14:16:09;23.30;69.60
152;DHT22;68;48.792;9.164;2023-07-31T14:18:35;23.20;71.50
152;DHT22;68;48.792;9.164;2023-07-31T14:21:02;23.30;70.00
152;DHT22;68;48.792;9.164;2023-07-31T14:23:29;23.40;69.50
152;DHT22;68;48.792;9.164;2023-07-31T14:25:57;23.50;69.10
152;DHT22;68;48.792;9.164;2023-07-31T14:28:24;23.60;69.40
152;DHT22;68;48.792;9.164;2023-07-31T14:30:51;23.60;69.00
152;DHT22;68;48.792;9.164;2023-07-31T14:33:18;23.60;69.10
152;DHT22;68;48.792;9.164;2023-07-31T14:35:44;23.60;69.60
152;DHT22;68;48.792;9.164;2023-07-31T14:38:11;23.70;69.10
152;DHT22;68;48.792;9.164;2023-07-31T14:40:38;23.70;68.50
152;DHT22;68;48.792;9.164;2023-07-31T14:43:06;23.60;74.30
152;DHT22;68;48.792;9.164;2023-07-31T14:45:33;23.50;69.60
152;DHT22;68;48.792;9.164;2023-07-31T14:47:59;23.60;70.20
152;DHT22;68;48.792;9.164;2023-07-31T14:50:26;23.70;69.90
152;DHT22;68;48.792;9.164;2023-07-31T14:52:53;23.50;70.40
152;DHT22;68;48.792;9.164;2023-07-31T14:55:20;23.50;69.80
152;DHT22;68;48.792;9.164;2023-07-31T14:57:47;23.50;73.10
152;DHT22;68;48.792;9.164;2023-07-31T15:00:15;23.50;70.10
152;DHT22;68;48.792;9.164;2023-07-31T15:02:42;23.50;71.00
152;DHT22;68;48.792;9.164;2023-07-31T15:05:09;23.50;72.50
152;DHT22;68;48.792;9.164;2023-07-31T15:07:36;23.50;71.30
152;DHT22;68;48.792;9.164;2023-07-31T15:10:03;23.50;70.80
152;DHT22;68;48.792;9.164;2023-07-31T15:12:31;23.50;72.20
152;DHT22;68;48.792;9.164;2023-07-31T15:14:58;23.60;74.60
152;DHT22;68;48.792;9.164;2023-07-31T15:17:26;23.80;70.50
152;DHT22;68;48.792;9.164;2023-07-31T15:19:54;23.70;70.20
152;DHT22;68;48.792;9.164;2023-07-31T15:22:20;23.70;70.60
152;DHT22;68;48.792;9.164;2023-07-31T15:24:47;23.60;69.80
152;DHT22;68;48.792;9.164;2023-07-31T15:27:15;23.80;69.70
152;DHT22;68;48.792;9.164;2023-07-31T15:29:41;24.00;69.00
152;DHT22;68;48.792;9.164;2023-07-31T15:34:37;23.70;68.60
152;DHT22;68;48.792;9.164;2023-07-31T15:37:04;23.70;68.70
152;DHT22;68;48.792;9.164;2023-07-31T15:39:31;23.70;69.20
152;DHT22;68;48.792;9.164;2023-07-31T15:44:25;23.50;70.00
152;DHT22;68;48.792;9.164;2023-07-31T15:46:52;23.30;73.30
152;DHT22;68;48.792;9.164;2023-07-31T15:49:18;23.30;73.50
152;DHT22;68;48.792;9.164;2023-07-31T15:51:46;23.40;71.00
152;DHT22;68;48.792;9.164;2023-07-31T15:54:14;23.40;71.00
152;DHT22;68;48.792;9.164;2023-07-31T15:56:41;23.50;69.40
152;DHT22;68;48.792;9.164;2023-07-31T15:59:08;23.30;70.10
152;DHT22;68;48.792;9.164;2023-07-31T16:01:35;23.30;70.10
152;DHT22;68;48.792;9.164;2023-07-31T16:04:02;23.40;70.20
152;DHT22;68;48.792;9.164;2023-07-31T16:06:29;23.50;70.30
152;DHT22;68;48.792;9.164;2023-07-31T16:08:57;23.40;71.20
152;DHT22;68;48.792;9.164;2023-07-31T16:11:24;23.30;70.60
152;DHT22;68;48.792;9.164;2023-07-31T16:13:51;23.20;71.30
152;DHT22;68;48.792;9.164;2023-07-31T16:16:17;23.20;71.50
152;DHT22;68;48.792;9.164;2023-07-31T16:18:45;23.10;70.30
152;DHT22;68;48.792;9.164;2023-07-31T16:21:12;23.10;70.00
152;DHT22;68;48.792;9.164;2023-07-31T16:23:39;23.30;70.40
152;DHT22;68;48.792;9.164;2023-07-31T16:26:07;23.30;69.50
152;DHT22;68;48.792;9.164;2023-07-31T16:28:34;23.30;69.10
152;DHT22;68;48.792;9.164;2023-07-31T16:31:01;23.20;70.60
152;DHT22;68;48.792;9.164;2023-07-31T16:35:56;23.10;72.40
152;DHT22;68;48.792;9.164;2023-07-31T16:38:22;23.10;70.00
152;DHT22;68;48.792;9.164;2023-07-31T16:40:49;23.30;69.50
152;DHT22;68;48.792;9.164;2023-07-31T16:43:18;23.40;71.90
152;DHT22;68;48.792;9.164;2023-07-31T16:45:44;23.20;73.10
152;DHT22;68;48.792;9.164;2023-07-31T16:48:11;23.30;70.20
152;DHT22;68;48.792;9.164;2023-07-31T16:50:38;23.30;69.60
152;DHT22;68;48.792;9.164;2023-07-31T16:53:05;23.30;70.10
152;DHT22;68;48.792;9.164;2023-07-31T16:55:32;23.30;70.30
152;DHT22;68;48.792;9.164;2023-07-31T16:57:59;23.20;71.70
152;DHT22;68;48.792;9.164;2023-07-31T17:00:29;23.10;70.50